Archival Weather

NSFA McMurdo Sound

NSFA McMurdo Sound, Antarctica (NZCM)

Report from: Friday, September 23, 2022 4:55 PM UTC
Current time: Sunday, December 4, 2022 12:34 PM UTC

Current weather
Weather history
Weather forecast

Temperature-17.6°C (0.3°F)
Wind chill-27.5°C (-17.5°F)
Dew point-22.7°C (-8.9°F)
Winds 11 kts (5.7 m/s, 12.7 mph) East-Northeast (70°)
Wind gusts 28 kts (14.4 m/s, 32.2 mph)
Peak wind 28 kts (14.4 m/s, 32.2 mph) East-Northeast (70°) at 11:46
Visibility6.2 mi. (10 km)
Clouds Ceiling: Broken clouds 3,100 ft. (945 m)
Overcast 12,000 ft. (3,658 m)
Altimeter28.58 in.Hg (968 mB)
Relative humidity64 %
Density altitude-2,526 ft. (-770 m)
Sea-level pressure106.8 kPa (1068 mB, 31.55 in.Hg)
Remarks Fully automated report
System requires maintenance
Automated weather observing station with precipitation discriminator
Flight conditions Visual Meteorological Conditions
Raw dataNZCM 231655Z AUTO 07011G28KT 9999 BKN031 OVC120 M18/M23 A2858 RMK AO2 PK WND 07028/1646 SLP684 T11761227 $
An error has occurred. This application may no longer respond until reloaded. Reload 🗙